Time;durP1;ratioP1;P1;durP2;ratioP2;P2;SDS_P1;SDS_P2;PMS_P1;PMS_P2;Temp;Humidity;BMP_temperature;BMP_pressure;BME280_temperature;BME280_humidity;BME280_pressure;Samples;Min_cycle;Max_cycle;Signal;HPM_P1;HPM_P2
2022/11/29 00:01:26;;;;;;;2.13;1.70;;;;;;;5.13;100.00;94742.84;5072738;28;20203;-64
2022/11/29 00:03:52;;;;;;;2.07;1.90;;;;;;;5.16;100.00;94746.06;5072907;28;20282;-64
2022/11/29 00:06:26;;;;;;;2.27;2.07;;;;;;;4.91;100.00;94707.28;5072797;28;20214;-63
2022/11/29 00:08:52;;;;;;;2.50;1.93;;;;;;;4.91;100.00;94714.03;5072844;28;20193;-61
2022/11/29 00:14:13;;;;;;;2.70;1.70;;;;;;;5.04;100.00;94705.63;5072960;28;20704;-63
2022/11/29 00:16:41;;;;;;;2.13;1.67;;;;;;;5.00;100.00;94703.41;5072945;28;20195;-62
2022/11/29 00:19:09;;;;;;;2.57;1.80;;;;;;;5.05;100.00;94706.41;5072984;28;20212;-60
2022/11/29 00:21:34;;;;;;;2.33;2.13;;;;;;;5.01;100.00;94717.59;5054591;28;20198;-60
2022/11/29 00:24:00;;;;;;;3.17;2.23;;;;;;;5.05;100.00;94719.84;5072557;28;20185;-60
2022/11/29 00:26:25;;;;;;;2.00;1.70;;;;;;;4.99;100.00;94717.69;5072553;28;20213;-64
2022/11/29 00:28:51;;;;;;;3.30;1.90;;;;;;;4.90;100.00;94717.47;5072839;28;20661;-63
2022/11/29 00:31:21;;;;;;;1.97;1.63;;;;;;;4.94;100.00;94716.38;5072642;28;20206;-64
2022/11/29 00:33:49;;;;;;;1.70;1.47;;;;;;;5.04;100.00;94719.94;5072442;28;20258;-65
2022/11/29 00:36:15;;;;;;;5.90;1.93;;;;;;;5.02;100.00;94717.53;5072437;28;20185;-60
2022/11/29 00:38:41;;;;;;;1.93;1.80;;;;;;;5.01;100.00;94715.88;5072471;28;20196;-61
2022/11/29 00:41:08;;;;;;;2.23;1.80;;;;;;;5.00;100.00;94710.94;5072161;28;20603;-63
2022/11/29 00:43:34;;;;;;;2.87;1.90;;;;;;;4.98;100.00;94721.13;5054324;28;20211;-60
2022/11/29 00:46:00;;;;;;;1.90;1.63;;;;;;;4.87;100.00;94713.41;5061410;23;20224;-60
2022/11/29 00:48:26;;;;;;;1.80;1.43;;;;;;;4.97;100.00;94732.09;5072261;28;20646;-60
2022/11/29 00:50:51;;;;;;;1.47;1.37;;;;;;;5.03;100.00;94726.69;5072092;28;20273;-59
2022/11/29 00:53:17;;;;;;;1.83;1.37;;;;;;;5.03;100.00;94746.00;5071983;28;20198;-63
2022/11/29 00:55:46;;;;;;;3.50;1.27;;;;;;;5.04;100.00;94743.44;5072033;28;20237;-63
2022/11/29 00:58:11;;;;;;;1.40;1.30;;;;;;;4.95;100.00;94733.91;5072050;28;20223;-63
2022/11/29 01:00:37;;;;;;;1.20;0.87;;;;;;;5.08;100.00;94749.88;5053985;28;20248;-60
2022/11/29 01:03:02;;;;;;;1.00;0.90;;;;;;;5.07;100.00;94727.28;5072729;28;20192;-59
2022/11/29 01:05:29;;;;;;;1.20;1.10;;;;;;;5.06;100.00;94711.38;5071650;28;20217;-63
2022/11/29 01:07:55;;;;;;;1.93;1.03;;;;;;;5.10;100.00;94717.84;5054332;28;20214;-63
2022/11/29 01:10:20;;;;;;;1.20;1.10;;;;;;;5.08;100.00;94721.34;5072579;28;20207;-63
2022/11/29 01:12:46;;;;;;;1.23;1.10;;;;;;;5.13;100.00;94729.41;5072004;28;20206;-65
2022/11/29 01:15:11;;;;;;;1.53;0.97;;;;;;;4.97;100.00;94696.00;5071999;28;20219;-61
2022/11/29 01:17:38;;;;;;;1.10;1.00;;;;;;;4.93;100.00;94718.06;5071867;28;20195;-64
2022/11/29 01:20:05;;;;;;;1.07;0.97;;;;;;;4.84;100.00;94712.81;5072049;28;20242;-63
2022/11/29 01:22:32;;;;;;;1.27;1.17;;;;;;;5.02;100.00;94706.63;5071745;28;20189;-63
2022/11/29 01:24:57;;;;;;;1.00;0.90;;;;;;;5.04;100.00;94715.72;5071529;28;20213;-60
2022/11/29 01:27:23;;;;;;;1.10;1.00;;;;;;;5.04;100.00;94717.41;5072599;28;20177;-63
2022/11/29 01:29:49;;;;;;;0.70;0.70;;;;;;;5.04;100.00;94735.06;5071347;28;20213;-63
2022/11/29 01:32:14;;;;;;;1.20;0.90;;;;;;;5.00;100.00;94709.25;5053976;28;20225;-63
2022/11/29 01:34:39;;;;;;;1.27;1.17;;;;;;;5.03;100.00;94720.81;5071526;28;20223;-63
2022/11/29 01:37:05;;;;;;;1.67;1.10;;;;;;;5.06;100.00;94723.97;5071861;28;20617;-60
2022/11/29 01:39:30;;;;;;;0.70;0.70;;;;;;;5.10;100.00;94717.03;5053590;28;20220;-60
2022/11/29 01:41:56;;;;;;;2.00;1.27;;;;;;;5.13;100.00;94721.09;5071330;28;20658;-59
2022/11/29 01:44:21;;;;;;;0.80;0.80;;;;;;;5.17;100.00;94704.88;5071441;28;20674;-59
2022/11/29 01:46:47;;;;;;;0.87;0.80;;;;;;;5.15;100.00;94711.72;5071499;28;20192;-59
2022/11/29 01:49:31;;;;;;;0.63;0.63;;;;;;;5.03;100.00;94709.03;5071307;28;20606;-64
2022/11/29 01:52:07;;;;;;;1.07;0.97;;;;;;;5.05;100.00;94699.69;5071668;28;20237;-60
2022/11/29 01:54:38;;;;;;;1.07;1.00;;;;;;;4.96;100.00;94690.19;5071320;28;20204;-61
2022/11/29 01:57:06;;;;;;;0.90;0.87;;;;;;;5.10;100.00;94696.88;5052942;28;20190;-60
2022/11/29 01:59:35;;;;;;;1.13;1.00;;;;;;;5.09;100.00;94703.63;5071179;28;20212;-64
2022/11/29 02:02:19;;;;;;;1.43;0.97;;;;;;;5.29;100.00;94706.63;5070982;28;20234;-63
2022/11/29 02:04:45;;;;;;;1.20;1.07;;;;;;;5.16;100.00;94704.06;5071316;28;20306;-63
2022/11/29 02:07:11;;;;;;;2.10;0.90;;;;;;;5.38;100.00;94706.81;5070703;28;20305;-62
2022/11/29 02:09:37;;;;;;;3.30;0.90;;;;;;;5.28;100.00;94707.50;5071232;28;20772;-59
2022/11/29 02:12:44;;;;;;;0.80;0.80;;;;;;;5.10;100.00;94695.19;5071189;28;20188;-64
2022/11/29 02:15:40;;;;;;;1.40;1.20;;;;;;;5.02;100.00;94683.97;5070703;28;20215;-64
2022/11/29 02:18:36;;;;;;;1.07;0.97;;;;;;;5.04;100.00;94679.63;5035710;28;20213;-63
2022/11/29 02:21:10;;;;;;;1.20;1.10;;;;;;;4.99;100.00;94690.00;5070939;28;20212;-62
2022/11/29 02:23:57;;;;;;;1.07;0.97;;;;;;;5.02;100.00;94684.78;5053545;28;20673;-62
2022/11/29 02:26:46;;;;;;;0.73;0.70;;;;;;;4.94;100.00;94679.41;5071150;28;20569;-63
2022/11/29 02:29:49;;;;;;;1.37;1.10;;;;;;;4.90;100.00;94675.47;5071105;28;20598;-63
2022/11/29 02:32:42;;;;;;;1.60;1.23;;;;;;;4.90;100.00;94683.03;5071092;28;20195;-63
2022/11/29 02:35:43;;;;;;;1.33;1.20;;;;;;;5.07;100.00;94709.66;5071133;28;20273;-64
2022/11/29 02:38:08;;;;;;;1.33;0.70;;;;;;;5.09;100.00;94708.66;5002151;28;20198;-63
2022/11/29 02:40:49;;;;;;;1.03;1.00;;;;;;;5.07;100.00;94694.53;5070924;28;20206;-63
2022/11/29 02:43:25;;;;;;;0.70;0.70;;;;;;;5.03;100.00;94693.94;5052799;28;20283;-62
2022/11/29 02:46:21;;;;;;;1.20;1.00;;;;;;;5.04;100.00;94714.91;5070569;28;20218;-65
2022/11/29 02:48:52;;;;;;;1.30;1.20;;;;;;;5.01;100.00;94705.00;5071418;28;20276;-64
2022/11/29 02:51:28;;;;;;;1.00;0.83;;;;;;;4.98;100.00;94710.25;5070871;28;20188;-61
2022/11/29 02:54:09;;;;;;;0.73;0.70;;;;;;;5.03;100.00;94714.09;5071352;28;20197;-59
2022/11/29 02:56:43;;;;;;;0.80;0.80;;;;;;;5.04;100.00;94709.84;5070944;28;20211;-64
2022/11/29 03:02:18;;;;;;;1.17;0.90;;;;;;;5.07;100.00;94702.91;5084430;22;20239;-65
2022/11/29 03:04:58;;;;;;;1.17;0.90;;;;;;;5.01;100.00;94695.75;5070509;28;20224;-59
2022/11/29 03:08:01;;;;;;;2.87;1.40;;;;;;;4.97;100.00;94693.50;5070741;28;20264;-63
2022/11/29 03:11:05;;;;;;;1.47;1.27;;;;;;;5.01;100.00;94715.88;5052043;28;20273;-63
2022/11/29 03:13:42;;;;;;;2.20;0.97;;;;;;;5.00;100.00;94699.19;5069843;28;20211;-62
2022/11/29 03:16:28;;;;;;;1.30;1.00;;;;;;;4.87;100.00;94688.22;5070933;28;20240;-63
2022/11/29 03:19:03;;;;;;;1.00;0.90;;;;;;;4.82;100.00;94680.16;5070277;28;20183;-63
2022/11/29 03:21:34;;;;;;;1.00;0.90;;;;;;;4.94;100.00;94701.25;5070726;28;20201;-64
2022/11/29 03:24:08;;;;;;;1.03;0.87;;;;;;;4.90;100.00;94690.56;5070721;28;20195;-59
2022/11/29 03:26:58;;;;;;;1.30;1.03;;;;;;;4.92;100.00;94691.28;5069931;28;20362;-64
2022/11/29 03:29:31;;;;;;;1.23;0.97;;;;;;;5.02;100.00;94697.38;5074050;28;20224;-60
2022/11/29 03:32:20;;;;;;;1.37;0.90;;;;;;;5.02;100.00;94687.28;5074795;28;20702;-64
2022/11/29 03:35:01;;;;;;;1.20;1.10;;;;;;;5.02;100.00;94697.38;5055457;28;20607;-63
2022/11/29 03:37:45;;;;;;;2.27;1.27;;;;;;;5.02;100.00;94699.88;5073404;28;20218;-63
2022/11/29 03:40:25;;;;;;;1.23;1.10;;;;;;;4.93;100.00;94687.84;5056414;28;20543;-62
2022/11/29 03:42:57;;;;;;;1.40;1.30;;;;;;;4.94;100.00;94698.75;5080564;22;20607;-60
2022/11/29 03:45:41;;;;;;;1.40;1.30;;;;;;;5.00;100.00;94695.84;5073776;28;20212;-63
2022/11/29 03:48:16;;;;;;;1.43;1.10;;;;;;;5.01;100.00;94695.75;5074024;28;20685;-64
2022/11/29 03:50:47;;;;;;;1.10;1.00;;;;;;;5.02;100.00;94689.00;5073296;28;20298;-63
2022/11/29 03:53:32;;;;;;;2.77;1.40;;;;;;;5.08;100.00;94688.63;5075106;28;20196;-61
2022/11/29 03:55:59;;;;;;;1.90;1.30;;;;;;;4.91;100.00;94659.44;5072985;28;20216;-60
2022/11/29 03:58:41;;;;;;;1.17;1.00;;;;;;;4.85;100.00;94674.94;5056775;28;20203;-64
2022/11/29 04:01:41;;;;;;;2.30;1.70;;;;;;;4.84;100.00;94667.47;5055269;28;20246;-58
2022/11/29 04:04:45;;;;;;;1.00;0.90;;;;;;;4.81;100.00;94670.16;5055904;28;20215;-66
2022/11/29 04:07:13;;;;;;;1.57;1.47;;;;;;;4.79;100.00;94659.38;5055067;28;20206;-64
2022/11/29 04:10:00;;;;;;;2.00;1.80;;;;;;;4.90;100.00;94680.50;5073055;28;20668;-63
2022/11/29 04:12:46;;;;;;;1.80;1.53;;;;;;;4.91;100.00;94679.59;5074062;28;20198;-64
2022/11/29 04:15:31;;;;;;;2.90;1.37;;;;;;;4.93;100.00;94662.66;5055411;28;20211;-63
2022/11/29 04:18:24;;;;;;;1.57;1.47;;;;;;;4.81;100.00;94676.03;5073107;28;20189;-59
2022/11/29 04:21:12;;;;;;;1.77;1.37;;;;;;;4.86;100.00;94690.84;5073329;28;20240;-63
2022/11/29 04:24:05;;;;;;;1.17;1.07;;;;;;;4.84;100.00;94703.53;5054503;28;20627;-62
2022/11/29 04:26:53;;;;;;;1.37;1.23;;;;;;;4.89;100.00;94686.44;5072865;28;20250;-63
2022/11/29 04:29:40;;;;;;;1.33;0.93;;;;;;;5.04;100.00;94679.63;5054435;28;20304;-60
2022/11/29 04:32:17;;;;;;;1.53;1.20;;;;;;;4.97;100.00;94679.19;5072475;28;20191;-61
2022/11/29 04:35:01;;;;;;;1.20;1.03;;;;;;;4.87;100.00;94684.91;5089924;22;20254;-63
2022/11/29 04:37:29;;;;;;;1.60;1.30;;;;;;;4.75;100.00;94673.88;5072708;28;20345;-60
2022/11/29 04:39:58;;;;;;;2.63;1.40;;;;;;;5.00;100.00;94691.63;5072014;28;20213;-63
2022/11/29 04:42:24;;;;;;;1.87;1.50;;;;;;;4.96;100.00;94662.50;5072702;28;20660;-63
2022/11/29 04:45:09;;;;;;;2.17;1.37;;;;;;;5.02;100.00;94667.13;5072261;28;20278;-61
2022/11/29 04:47:46;;;;;;;2.13;1.93;;;;;;;5.12;100.00;94682.47;5072233;28;20210;-63
2022/11/29 04:50:19;;;;;;;1.63;1.47;;;;;;;5.00;100.00;94689.09;5072299;28;20676;-63
2022/11/29 04:52:50;;;;;;;2.27;1.17;;;;;;;5.01;100.00;94689.88;5072080;28;20183;-64
2022/11/29 04:55:37;;;;;;;1.43;1.33;;;;;;;5.03;100.00;94678.81;5071787;28;20593;-63
2022/11/29 04:58:14;;;;;;;1.60;1.50;;;;;;;4.95;100.00;94690.25;5070450;28;20182;-61
2022/11/29 05:00:55;;;;;;;2.27;1.30;;;;;;;4.86;100.00;94681.59;5058355;28;20221;-62
2022/11/29 05:04:01;;;;;;;3.13;1.33;;;;;;;4.87;100.00;94693.28;5056660;28;20190;-63
2022/11/29 05:06:42;;;;;;;1.60;1.50;;;;;;;4.86;100.00;94689.16;5044056;28;20226;-62
2022/11/29 05:09:22;;;;;;;1.93;1.33;;;;;;;4.68;100.00;94660.06;5056406;28;20245;-62
2022/11/29 05:12:22;;;;;;;2.03;1.43;;;;;;;4.63;100.00;94631.84;5075025;28;20193;-60
2022/11/29 05:15:13;;;;;;;3.10;1.23;;;;;;;4.73;100.00;94634.59;5071700;28;20235;-60
2022/11/29 05:18:23;;;;;;;1.70;1.40;;;;;;;4.88;100.00;94656.31;5071760;28;20277;-63
2022/11/29 05:21:18;;;;;;;2.07;1.20;;;;;;;4.83;100.00;94651.56;5040722;28;20224;-65
2022/11/29 05:24:23;;;;;;;3.70;1.47;;;;;;;4.83;100.00;94686.00;5071806;28;20559;-63
2022/11/29 05:27:02;;;;;;;2.00;1.30;;;;;;;4.91;100.00;94684.63;5071676;28;20242;-62
2022/11/29 05:29:59;;;;;;;1.37;1.27;;;;;;;4.91;100.00;94668.69;5072727;28;20751;-61
2022/11/29 05:33:15;;;;;;;2.13;1.10;;;;;;;4.94;100.00;94656.75;5061513;28;20254;-64
2022/11/29 05:36:18;;;;;;;4.47;1.90;;;;;;;4.99;100.00;94664.81;5027011;28;20268;-60
2022/11/29 05:38:47;;;;;;;8.37;2.00;;;;;;;5.03;100.00;94686.38;5071434;28;20238;-60
2022/11/29 05:41:37;;;;;;;2.03;1.83;;;;;;;4.90;100.00;94678.00;5079925;22;20623;-61
2022/11/29 05:44:15;;;;;;;2.63;1.53;;;;;;;4.75;100.00;94666.34;5071471;28;20212;-61
2022/11/29 05:46:44;;;;;;;2.70;1.80;;;;;;;4.72;100.00;94658.16;5071987;28;20613;-63
2022/11/29 05:49:15;;;;;;;2.73;1.80;;;;;;;4.74;100.00;94667.25;5070568;28;20276;-63
2022/11/29 05:51:54;;;;;;;4.03;1.57;;;;;;;4.81;100.00;94670.16;5068152;28;20202;-60
2022/11/29 05:54:54;;;;;;;4.00;1.83;;;;;;;4.84;100.00;94668.28;5069705;28;21718;-59
2022/11/29 05:57:39;;;;;;;3.67;2.40;;;;;;;4.90;100.00;94667.09;5072128;28;20656;-64
2022/11/29 06:00:06;;;;;;;3.93;2.10;;;;;;;4.92;100.00;94670.31;5071216;28;20217;-64
2022/11/29 06:02:50;;;;;;;9.53;2.73;;;;;;;5.03;100.00;94681.34;5053254;28;20188;-64
2022/11/29 06:05:31;;;;;;;3.53;2.30;;;;;;;4.85;100.00;94644.72;5071966;28;20595;-64
2022/11/29 06:08:20;;;;;;;3.80;2.20;;;;;;;5.06;100.00;94672.78;5072185;28;20184;-64
2022/11/29 06:11:00;;;;;;;4.63;2.10;;;;;;;5.12;100.00;94669.88;5071412;28;20208;-61
2022/11/29 06:13:25;;;;;;;3.43;1.67;;;;;;;5.22;100.00;94681.00;5071337;28;20602;-65
2022/11/29 06:16:17;;;;;;;2.90;1.70;;;;;;;5.07;100.00;94669.34;5071154;28;20272;-64
2022/11/29 06:19:26;;;;;;;3.33;1.80;;;;;;;5.25;100.00;94687.56;5040659;28;20642;-59
2022/11/29 06:22:26;;;;;;;3.93;1.90;;;;;;;5.26;100.00;94697.53;5071932;28;20300;-61
2022/11/29 06:25:16;;;;;;;2.03;1.73;;;;;;;5.15;100.00;94706.69;5071541;28;20224;-63
2022/11/29 06:28:06;;;;;;;3.47;1.77;;;;;;;5.22;100.00;94668.38;5052349;28;20298;-64
2022/11/29 06:30:50;;;;;;;4.97;2.23;;;;;;;5.36;100.00;94700.25;5050243;28;20700;-66
2022/11/29 06:33:22;;;;;;;7.43;2.60;;;;;;;5.54;100.00;94729.34;5068551;28;20209;-66
2022/11/29 06:36:12;;;;;;;3.93;2.00;;;;;;;5.42;100.00;94722.56;5071095;28;20219;-60
2022/11/29 06:38:37;;;;;;;2.57;1.83;;;;;;;5.61;100.00;94736.44;5070792;28;20259;-62
2022/11/29 06:41:03;;;;;;;4.83;1.57;;;;;;;5.59;100.00;94758.41;5071174;28;20320;-61
2022/11/29 06:43:29;;;;;;;3.43;1.50;;;;;;;5.60;100.00;94754.97;5071701;28;20196;-62
2022/11/29 06:46:04;;;;;;;2.70;1.70;;;;;;;5.83;100.00;94786.28;5054147;28;20356;-64
2022/11/29 06:48:37;;;;;;;2.60;1.70;;;;;;;5.74;100.00;94784.34;5070788;28;20206;-64
2022/11/29 06:51:33;;;;;;;2.30;1.77;;;;;;;5.54;100.00;94772.19;5071379;28;20225;-61
2022/11/29 06:54:21;;;;;;;3.20;1.77;;;;;;;5.61;100.00;94770.91;5071256;28;20195;-65
2022/11/29 06:57:03;;;;;;;3.97;1.80;;;;;;;5.50;100.00;94758.97;5071195;28;20200;-67
2022/11/29 06:59:50;;;;;;;5.03;1.50;;;;;;;5.71;100.00;94601.28;5071254;28;20204;-62
2022/11/29 07:02:41;;;;;;;2.37;1.63;;;;;;;5.68;100.00;94747.72;5071151;28;20635;-65
2022/11/29 07:05:28;;;;;;;2.00;1.50;;;;;;;5.59;100.00;94763.47;5074129;28;20227;-63
2022/11/29 07:07:56;;;;;;;2.03;1.57;;;;;;;5.51;100.00;94759.81;5073680;28;20191;-60
2022/11/29 07:10:22;;;;;;;2.20;1.80;;;;;;;5.65;100.00;94762.25;5073704;28;20215;-61
2022/11/29 07:12:49;;;;;;;2.30;1.63;;;;;;;5.60;100.00;94770.09;5073955;28;20275;-61
2022/11/29 07:15:18;;;;;;;4.53;2.03;;;;;;;5.42;100.00;94757.84;5073999;28;20218;-63
2022/11/29 07:17:49;;;;;;;3.43;1.50;;;;;;;5.46;100.00;94756.75;5074146;28;20200;-64
2022/11/29 07:20:25;;;;;;;3.90;2.10;;;;;;;5.54;100.00;94755.38;5073708;28;20265;-66
2022/11/29 07:23:13;;;;;;;4.53;1.83;;;;;;;5.64;100.00;94803.47;5073814;28;20275;-64
2022/11/29 07:25:47;;;;;;;2.33;1.80;;;;;;;5.33;100.00;94771.84;5055589;28;20227;-63
2022/11/29 07:28:36;;;;;;;3.07;1.90;;;;;;;5.35;100.00;94767.53;5073555;28;20196;-63
2022/11/29 07:31:17;;;;;;;2.93;1.67;;;;;;;5.32;100.00;94754.28;5073621;28;20223;-64
2022/11/29 07:34:07;;;;;;;3.00;1.60;;;;;;;5.29;100.00;94787.25;5073512;28;20200;-63
2022/11/29 07:36:45;;;;;;;4.67;1.90;;;;;;;5.44;100.00;94778.72;5073372;28;20646;-64
2022/11/29 07:39:22;;;;;;;3.03;1.70;;;;;;;5.24;100.00;94789.25;5073302;28;20697;-62
2022/11/29 07:41:56;;;;;;;1.50;1.40;;;;;;;5.32;100.00;94782.00;5055264;28;20199;-65
2022/11/29 07:44:38;;;;;;;1.73;1.60;;;;;;;5.39;100.00;94786.59;5073101;28;20700;-63
2022/11/29 07:47:04;;;;;;;2.20;1.57;;;;;;;5.32;100.00;94772.75;5055475;28;20202;-64
2022/11/29 07:49:30;;;;;;;3.67;1.80;;;;;;;5.33;100.00;94764.28;5073682;28;20208;-64
2022/11/29 07:51:56;;;;;;;3.90;1.43;;;;;;;5.30;100.00;94759.44;5073410;28;20192;-63
2022/11/29 07:54:21;;;;;;;1.83;1.20;;;;;;;5.31;100.00;94755.22;5055574;28;20578;-64
2022/11/29 07:56:47;;;;;;;2.37;1.37;;;;;;;5.33;100.00;94751.69;5073214;28;20210;-65
2022/11/29 07:59:13;;;;;;;4.87;1.90;;;;;;;5.38;100.00;94742.13;5073021;28;20682;-65
2022/11/29 08:01:39;;;;;;;4.00;1.80;;;;;;;5.49;100.00;94761.63;5073039;28;20195;-65
2022/11/29 08:04:05;;;;;;;7.13;1.30;;;;;;;5.41;100.00;94739.41;5072834;28;20200;-63
2022/11/29 08:06:31;;;;;;;2.03;1.47;;;;;;;5.52;100.00;94741.22;5072776;28;20678;-64
2022/11/29 08:08:57;;;;;;;6.93;1.60;;;;;;;5.48;100.00;94750.72;5072719;28;20238;-64
2022/11/29 08:11:23;;;;;;;2.60;1.70;;;;;;;5.53;100.00;94727.75;5073000;28;20197;-63
2022/11/29 08:13:48;;;;;;;1.77;1.57;;;;;;;5.65;100.00;94747.13;5072033;28;20200;-62
2022/11/29 08:16:18;;;;;;;1.67;1.40;;;;;;;5.68;100.00;94754.47;5072517;28;20193;-64
2022/11/29 08:18:43;;;;;;;1.70;1.33;;;;;;;5.51;100.00;94754.75;5072375;28;20199;-64
2022/11/29 08:21:09;;;;;;;2.27;1.40;;;;;;;5.48;100.00;94735.59;5072968;28;20279;-63
2022/11/29 08:23:34;;;;;;;3.13;1.33;;;;;;;5.55;100.00;94724.22;5072585;28;20650;-64
2022/11/29 08:26:01;;;;;;;2.47;1.47;;;;;;;5.66;100.00;94721.81;5072689;28;20709;-65
2022/11/29 08:28:28;;;;;;;5.00;1.77;;;;;;;5.65;100.00;94721.91;5072639;28;20200;-64
2022/11/29 08:31:04;;;;;;;3.93;2.10;;;;;;;5.73;100.00;94739.88;5072944;28;20695;-64
2022/11/29 08:33:30;;;;;;;5.57;1.70;;;;;;;5.94;100.00;94746.06;5072594;28;20199;-64
2022/11/29 08:35:55;;;;;;;7.20;2.03;;;;;;;5.84;100.00;94747.56;5054835;28;20704;-64
2022/11/29 08:38:21;;;;;;;5.47;1.90;;;;;;;5.93;100.00;94752.03;5072408;28;20235;-65
2022/11/29 08:40:50;;;;;;;3.47;1.50;;;;;;;5.87;100.00;94738.09;5073359;28;20297;-63
2022/11/29 08:43:16;;;;;;;4.00;1.60;;;;;;;5.92;100.00;94723.47;5073114;28;20219;-65
2022/11/29 08:45:41;;;;;;;4.90;1.30;;;;;;;6.07;100.00;94753.66;5072041;28;20679;-63
2022/11/29 08:48:06;;;;;;;3.33;1.40;;;;;;;5.80;100.00;94741.88;5079486;22;20327;-64
2022/11/29 08:50:32;;;;;;;2.60;1.10;;;;;;;6.13;100.00;94756.59;5072015;28;20233;-62
2022/11/29 08:55:41;;;;;;;6.23;1.53;;;;;;;6.29;100.00;94766.47;5072563;28;20222;-64
2022/11/29 08:58:13;;;;;;;2.03;1.50;;;;;;;6.37;100.00;94776.84;5072014;28;20188;-64
2022/11/29 09:00:39;;;;;;;2.67;1.33;;;;;;;6.42;100.00;94788.25;5054291;28;20304;-59
2022/11/29 09:05:50;;;;;;;2.67;1.80;;;;;;;6.31;100.00;94759.59;5072101;28;20751;-65
2022/11/29 09:08:16;;;;;;;3.00;1.50;;;;;;;6.29;100.00;94758.88;5072195;28;20650;-65
2022/11/29 09:10:42;;;;;;;4.03;1.73;;;;;;;6.29;100.00;94751.31;5071737;28;20249;-64
2022/11/29 09:13:09;;;;;;;1.90;1.53;;;;;;;6.31;100.00;94755.38;5072042;28;20192;-59
2022/11/29 09:15:43;;;;;;;5.20;1.70;;;;;;;6.39;100.00;94765.75;5053648;28;20280;-60
2022/11/29 09:18:08;;;;;;;5.57;1.70;;;;;;;6.34;100.00;94752.63;5071796;28;20195;-60
2022/11/29 09:20:34;;;;;;;5.13;1.90;;;;;;;6.35;100.00;94751.72;5071789;28;20734;-59
2022/11/29 09:23:00;;;;;;;3.10;1.83;;;;;;;6.43;100.00;94756.25;5071770;28;20192;-60
2022/11/29 09:25:27;;;;;;;4.10;2.10;;;;;;;6.53;100.00;94763.13;5071263;28;20300;-60
2022/11/29 09:27:53;;;;;;;2.87;1.80;;;;;;;6.50;100.00;94753.25;5071376;28;20273;-61
2022/11/29 09:30:18;;;;;;;2.53;1.30;;;;;;;6.33;100.00;94755.25;5071726;28;20291;-61
2022/11/29 09:32:45;;;;;;;5.07;1.67;;;;;;;6.30;100.00;94750.41;5071403;28;20200;-61
2022/11/29 09:35:12;;;;;;;1.90;1.30;;;;;;;6.37;100.00;94751.63;5071738;28;20309;-61
2022/11/29 09:37:41;;;;;;;3.77;1.53;;;;;;;6.32;100.00;94739.28;5078778;22;20223;-63
2022/11/29 09:40:14;;;;;;;2.67;1.57;;;;;;;6.46;100.00;94741.72;5071516;28;20250;-63
2022/11/29 09:42:52;;;;;;;4.77;1.47;;;;;;;6.44;100.00;94725.88;5071504;28;20176;-63
2022/11/29 09:45:30;;;;;;;3.87;1.67;;;;;;;6.51;100.00;94716.16;5071480;28;20295;-64
2022/11/29 09:47:59;;;;;;;4.70;1.40;;;;;;;6.49;100.00;94716.25;5071473;28;20260;-64
2022/11/29 09:50:32;;;;;;;4.87;2.10;;;;;;;6.48;100.00;94716.38;5078402;22;20269;-66
2022/11/29 09:53:42;;;;;;;3.07;1.80;;;;;;;6.60;100.00;94745.84;5071193;28;20195;-63
2022/11/29 09:56:27;;;;;;;3.60;1.60;;;;;;;6.49;100.00;94720.50;5051291;28;20194;-63
2022/11/29 09:59:08;;;;;;;1.50;1.30;;;;;;;6.51;100.00;94711.09;5051058;28;20188;-64
2022/11/29 10:01:39;;;;;;;4.00;1.83;;;;;;;6.63;100.00;94708.53;5051242;28;20667;-64
2022/11/29 10:04:17;;;;;;;6.00;2.30;;;;;;;6.62;100.00;94712.00;5051295;28;20217;-63
2022/11/29 10:06:59;;;;;;;3.33;2.00;;;;;;;6.76;100.00;94711.84;5050996;28;20212;-60
2022/11/29 10:09:58;;;;;;;4.97;2.03;;;;;;;6.62;100.00;94712.00;5033092;28;20212;-60
2022/11/29 10:12:36;;;;;;;1.70;1.50;;;;;;;6.69;100.00;94705.59;5033184;28;20198;-60
2022/11/29 10:15:12;;;;;;;2.83;1.70;;;;;;;6.62;100.00;94689.28;5075483;22;20223;-64
2022/11/29 10:20:36;;;;;;;3.70;2.00;;;;;;;6.72;100.00;94682.66;5071153;28;20222;-60
2022/11/29 10:23:14;;;;;;;2.13;1.60;;;;;;;6.86;100.00;94688.47;5070891;28;20184;-61
2022/11/29 10:25:48;;;;;;;4.70;1.60;;;;;;;6.90;100.00;94703.31;5071084;28;20613;-59
2022/11/29 10:28:17;;;;;;;2.93;1.90;;;;;;;6.87;100.00;94695.16;5070637;28;20180;-64
2022/11/29 10:30:44;;;;;;;4.77;1.73;;;;;;;6.93;100.00;94707.34;5071282;28;20528;-63
2022/11/29 10:33:24;;;;;;;4.03;2.17;;;;;;;6.92;100.00;94688.84;5070565;28;20271;-65
2022/11/29 10:35:54;;;;;;;3.70;2.67;;;;;;;6.95;100.00;94692.91;5052677;28;20778;-65
2022/11/29 10:38:20;;;;;;;3.07;2.30;;;;;;;6.99;100.00;94679.91;5072652;28;20199;-65
2022/11/29 10:40:50;;;;;;;8.37;3.10;;;;;;;6.85;100.00;94685.13;5074356;28;20201;-63
2022/11/29 10:43:15;;;;;;;5.50;2.40;;;;;;;6.94;100.00;94683.69;5074254;28;20181;-60
2022/11/29 10:45:52;;;;;;;5.37;2.20;;;;;;;7.11;100.00;94703.53;5072632;28;20225;-61
2022/11/29 10:48:23;;;;;;;3.47;2.83;;;;;;;6.99;100.00;94710.25;5074275;28;20257;-60
2022/11/29 10:50:50;;;;;;;4.50;3.10;;;;;;;6.95;100.00;94690.38;5074747;28;20208;-63
2022/11/29 10:53:22;;;;;;;4.40;3.20;;;;;;;6.95;100.00;94691.16;5073756;28;20183;-64
2022/11/29 10:55:59;;;;;;;5.57;3.13;;;;;;;6.98;100.00;94669.91;5074199;28;20762;-63
2022/11/29 10:58:29;;;;;;;6.17;2.80;;;;;;;6.79;100.00;94643.41;5073995;28;20582;-64
2022/11/29 11:01:06;;;;;;;6.33;3.00;;;;;;;6.78;100.00;94621.63;5074362;28;20209;-64
2022/11/29 11:03:37;;;;;;;4.10;3.00;;;;;;;6.81;100.00;94615.53;5073733;28;20184;-64
2022/11/29 11:06:04;;;;;;;3.40;3.00;;;;;;;6.85;100.00;94627.03;5073417;28;20274;-60
2022/11/29 11:08:31;;;;;;;5.53;3.77;;;;;;;6.71;100.00;94599.41;5073770;28;20704;-64
2022/11/29 11:10:57;;;;;;;6.60;3.33;;;;;;;6.70;100.00;94580.13;5073576;28;20226;-64
2022/11/29 11:13:29;;;;;;;3.27;2.60;;;;;;;6.81;100.00;94594.53;5073651;28;20602;-60
2022/11/29 11:15:57;;;;;;;6.17;2.87;;;;;;;6.77;100.00;94599.78;5074304;28;20306;-63
2022/11/29 11:18:28;;;;;;;5.30;2.83;;;;;;;6.85;100.00;94598.44;5073880;28;20566;-63
2022/11/29 11:20:57;;;;;;;5.57;3.10;;;;;;;6.75;100.00;94598.28;5055534;28;20306;-63
2022/11/29 11:23:24;;;;;;;5.43;2.80;;;;;;;6.66;100.00;94587.13;5055358;28;20204;-63
2022/11/29 11:26:12;;;;;;;4.40;3.07;;;;;;;6.82;100.00;94608.75;5055606;28;20233;-61
2022/11/29 11:28:48;;;;;;;4.13;2.77;;;;;;;6.83;100.00;94610.38;5055708;28;20589;-63
2022/11/29 11:31:14;;;;;;;4.67;2.87;;;;;;;6.71;100.00;94604.44;5080548;22;20256;-63
2022/11/29 11:33:46;;;;;;;4.87;3.00;;;;;;;6.76;100.00;94618.41;5073620;28;20220;-64
2022/11/29 11:36:13;;;;;;;11.63;3.20;;;;;;;6.67;100.00;94606.41;5054067;28;20567;-64
2022/11/29 11:38:48;;;;;;;7.80;3.40;;;;;;;6.76;100.00;94625.97;5053560;28;20204;-64
2022/11/29 11:41:22;;;;;;;4.67;3.00;;;;;;;6.83;100.00;94628.84;5053554;28;20191;-64
2022/11/29 11:43:55;;;;;;;5.67;2.93;;;;;;;6.87;100.00;94621.88;5053367;28;20192;-64
2022/11/29 11:46:20;;;;;;;3.83;2.30;;;;;;;6.94;100.00;94630.63;5080757;22;20225;-63
2022/11/29 11:48:46;;;;;;;7.00;2.37;;;;;;;6.94;100.00;94635.69;5072298;28;20185;-65
2022/11/29 11:51:24;;;;;;;3.93;2.27;;;;;;;6.89;100.00;94625.88;5071711;28;20655;-65
2022/11/29 11:53:54;;;;;;;7.93;2.70;;;;;;;6.78;100.00;94616.56;5073054;28;20274;-65
2022/11/29 11:56:20;;;;;;;3.73;2.50;;;;;;;6.84;100.00;94627.13;5073513;28;20313;-63
2022/11/29 11:58:52;;;;;;;3.53;2.13;;;;;;;7.07;100.00;94613.69;5073147;28;20189;-66
2022/11/29 12:01:29;;;;;;;3.90;2.73;;;;;;;7.00;100.00;94615.84;5073292;28;20200;-64
2022/11/29 12:04:15;;;;;;;5.73;2.87;;;;;;;7.08;100.00;94621.16;5073103;28;20187;-63
2022/11/29 12:06:47;;;;;;;5.20;2.03;;;;;;;7.04;100.00;94641.69;5054990;28;20217;-64
2022/11/29 12:09:44;;;;;;;3.17;2.20;;;;;;;7.01;100.00;94636.88;5055000;28;20244;-61
2022/11/29 12:12:33;;;;;;;7.40;2.57;;;;;;;6.82;100.00;94611.28;5072740;28;20189;-61
2022/11/29 12:15:00;;;;;;;2.70;1.93;;;;;;;6.93;100.00;94616.41;5073093;28;20204;-60
2022/11/29 12:17:50;;;;;;;7.43;1.90;;;;;;;6.96;100.00;94614.44;5054813;28;20283;-62
2022/11/29 12:20:30;;;;;;;4.93;2.27;;;;;;;6.92;100.00;94620.63;5073112;28;20693;-60
2022/11/29 12:23:08;;;;;;;6.17;2.37;;;;;;;6.95;100.00;94609.50;5073268;28;20222;-64
2022/11/29 12:25:49;;;;;;;4.03;2.13;;;;;;;6.88;100.00;94608.31;5072734;28;20259;-64
2022/11/29 12:28:17;;;;;;;6.97;2.13;;;;;;;7.02;100.00;94628.38;5073151;28;20655;-64